createdAt,value
2022-10-02T00:01:17.284Z,4.47
2022-10-02T00:03:48.248Z,3.80
2022-10-02T00:06:22.120Z,3.50
2022-10-02T00:08:56.076Z,3.60
2022-10-02T00:11:30.922Z,3.50
2022-10-02T00:14:02.686Z,3.40
2022-10-02T00:16:35.796Z,4.07
2022-10-02T00:19:04.145Z,3.20
2022-10-02T00:21:49.304Z,3.90
2022-10-02T00:24:20.232Z,3.47
2022-10-02T00:26:56.982Z,3.50
2022-10-02T00:29:34.373Z,3.70
2022-10-02T00:32:22.097Z,3.03
2022-10-02T00:35:20.890Z,3.87
2022-10-02T00:37:56.965Z,3.13
2022-10-02T00:40:40.656Z,2.80
2022-10-02T00:43:18.970Z,3.53
2022-10-02T00:45:58.193Z,4.07
2022-10-02T00:48:42.669Z,4.00
2022-10-02T00:51:22.899Z,3.33
2022-10-02T00:54:01.633Z,3.10
2022-10-02T00:56:34.606Z,3.20
2022-10-02T00:59:25.906Z,3.70
2022-10-02T01:01:58.704Z,3.40
2022-10-02T01:04:31.775Z,3.93
2022-10-02T01:07:00.493Z,3.80
2022-10-02T01:09:29.343Z,3.50
2022-10-02T01:11:57.520Z,3.47
2022-10-02T01:14:34.806Z,3.10
2022-10-02T01:17:04.021Z,3.03
2022-10-02T01:19:38.300Z,3.13
2022-10-02T01:22:12.379Z,3.40
2022-10-02T01:24:48.644Z,3.43
2022-10-02T01:27:16.930Z,3.23
2022-10-02T01:29:48.627Z,2.70
2022-10-02T01:32:18.587Z,3.60
2022-10-02T01:34:47.293Z,3.47
2022-10-02T01:37:15.431Z,2.90
2022-10-02T01:39:43.653Z,3.63
2022-10-02T01:42:13.086Z,2.87
2022-10-02T01:44:43.454Z,2.80
2022-10-02T01:47:16.441Z,2.60
2022-10-02T01:49:56.030Z,3.20
2022-10-02T01:52:48.087Z,3.30
2022-10-02T01:55:28.365Z,2.97
2022-10-02T01:58:09.541Z,2.90
2022-10-02T02:00:47.838Z,3.80
2022-10-02T02:03:23.355Z,3.93
2022-10-02T02:05:57.287Z,3.60
2022-10-02T02:08:33.154Z,3.20
2022-10-02T02:11:11.514Z,4.70
2022-10-02T02:13:47.774Z,3.20
2022-10-02T02:16:22.815Z,4.23
2022-10-02T02:18:54.999Z,5.40
2022-10-02T02:21:26.295Z,4.50
2022-10-02T02:23:57.722Z,4.50
2022-10-02T02:26:28.305Z,4.33
2022-10-02T02:29:02.347Z,5.37
2022-10-02T02:31:38.431Z,3.90
2022-10-02T02:34:09.823Z,4.27
2022-10-02T02:36:42.358Z,4.50
2022-10-02T02:39:15.025Z,4.90
2022-10-02T02:41:47.776Z,4.57
2022-10-02T02:44:22.330Z,5.07
2022-10-02T02:47:06.474Z,4.70
2022-10-02T02:49:41.507Z,4.80
2022-10-02T02:52:13.675Z,4.47
2022-10-02T02:54:46.757Z,4.23
2022-10-02T02:57:18.200Z,4.77
2022-10-02T02:59:51.777Z,4.63
2022-10-02T03:02:19.627Z,4.43
2022-10-02T03:04:47.386Z,4.80
2022-10-02T03:07:17.811Z,5.37
2022-10-02T03:09:59.578Z,4.73
2022-10-02T03:12:39.098Z,5.13
2022-10-02T03:15:27.967Z,5.73
2022-10-02T03:18:18.864Z,5.33
2022-10-02T03:20:54.566Z,6.10
2022-10-02T03:23:29.967Z,5.00
2022-10-02T03:26:04.473Z,5.60
2022-10-02T03:28:54.894Z,5.83
2022-10-02T03:31:26.982Z,5.57
2022-10-02T03:33:55.969Z,5.30
2022-10-02T03:36:27.142Z,5.33
2022-10-02T03:39:23.154Z,5.53
2022-10-02T03:41:46.467Z,5.00
2022-10-02T03:44:14.532Z,6.20
2022-10-02T03:46:44.034Z,5.60
2022-10-02T03:49:12.044Z,5.13
2022-10-02T03:51:40.114Z,5.73
2022-10-02T03:54:16.140Z,7.20
2022-10-02T03:56:52.776Z,6.10
2022-10-02T03:59:32.310Z,7.63
2022-10-02T04:02:07.270Z,7.53
2022-10-02T04:04:43.763Z,8.03
2022-10-02T04:07:16.399Z,7.53
2022-10-02T04:09:52.047Z,7.27
2022-10-02T04:12:23.935Z,7.87
2022-10-02T04:14:57.361Z,7.37
2022-10-02T04:17:32.511Z,7.27
2022-10-02T04:20:08.815Z,5.73
2022-10-02T04:22:42.575Z,6.20
2022-10-02T04:25:16.212Z,6.57
2022-10-02T04:27:49.341Z,5.90
2022-10-02T04:30:19.126Z,6.50
2022-10-02T04:32:49.359Z,5.43
2022-10-02T04:35:22.334Z,5.50
2022-10-02T04:38:08.092Z,6.10
2022-10-02T04:40:52.436Z,6.57
2022-10-02T04:43:32.333Z,7.30
2022-10-02T04:46:17.964Z,8.13
2022-10-02T04:49:04.249Z,8.13
2022-10-02T04:51:52.602Z,9.27
2022-10-02T04:54:38.537Z,10.00
2022-10-02T04:57:18.627Z,10.97
2022-10-02T05:00:03.539Z,11.10
2022-10-02T05:02:49.998Z,12.20
2022-10-02T05:05:29.853Z,13.97
2022-10-02T05:08:13.706Z,13.00
2022-10-02T05:10:53.020Z,14.70
2022-10-02T05:13:39.436Z,15.27
2022-10-02T05:16:20.457Z,13.47
2022-10-02T05:19:08.171Z,13.13
2022-10-02T05:22:01.289Z,13.57
2022-10-02T05:24:46.300Z,12.40
2022-10-02T05:27:27.544Z,13.00
2022-10-02T05:30:09.573Z,12.50
2022-10-02T05:32:59.474Z,12.57
2022-10-02T05:35:40.843Z,12.43
2022-10-02T05:38:22.600Z,13.17
2022-10-02T05:41:02.197Z,13.03
2022-10-02T05:43:38.369Z,12.63
2022-10-02T05:46:14.238Z,12.27
2022-10-02T05:48:46.296Z,12.83
2022-10-02T05:51:19.767Z,12.63
2022-10-02T05:53:57.666Z,12.10
2022-10-02T05:56:33.219Z,11.70
2022-10-02T05:59:08.972Z,12.63
2022-10-02T06:01:41.823Z,11.70
2022-10-02T06:04:17.317Z,12.20
2022-10-02T06:06:48.940Z,12.13
2022-10-02T06:09:21.490Z,11.13
2022-10-02T06:11:52.623Z,10.27
2022-10-02T06:14:27.801Z,10.90
2022-10-02T06:17:00.747Z,11.93
2022-10-02T06:19:34.774Z,10.83
2022-10-02T06:22:08.618Z,10.97
2022-10-02T06:24:44.971Z,10.93
2022-10-02T06:27:18.973Z,11.37
2022-10-02T06:29:53.486Z,10.60
2022-10-02T06:32:32.122Z,10.33
2022-10-02T06:35:00.099Z,10.10
2022-10-02T06:37:46.279Z,10.03
2022-10-02T06:40:48.008Z,9.70
2022-10-02T06:43:30.888Z,10.00
2022-10-02T06:46:08.441Z,9.17
2022-10-02T06:48:46.717Z,10.10
2022-10-02T06:51:24.857Z,8.60
2022-10-02T06:54:22.234Z,9.47
2022-10-02T06:57:13.453Z,8.87
2022-10-02T06:59:57.136Z,8.20
2022-10-02T07:02:40.357Z,10.23
2022-10-02T07:05:44.663Z,8.60
2022-10-02T07:08:26.057Z,8.40
2022-10-02T07:11:02.012Z,7.57
2022-10-02T07:13:59.483Z,7.33
2022-10-02T07:16:54.487Z,8.43
2022-10-02T07:19:45.269Z,7.47
2022-10-02T07:22:44.121Z,7.53
2022-10-02T07:25:45.125Z,8.37
2022-10-02T07:28:21.402Z,8.00
2022-10-02T07:30:58.477Z,6.77
2022-10-02T07:33:45.432Z,6.47
2022-10-02T07:36:18.684Z,7.20
2022-10-02T07:39:04.424Z,6.50
2022-10-02T07:42:02.276Z,6.70
2022-10-02T07:45:00.103Z,7.00
2022-10-02T07:47:45.446Z,6.40
2022-10-02T07:50:31.001Z,6.20
2022-10-02T07:53:09.707Z,6.03
2022-10-02T07:55:42.428Z,6.53
2022-10-02T07:58:15.883Z,7.23
2022-10-02T08:00:48.815Z,6.83
2022-10-02T08:03:21.402Z,4.97
2022-10-02T08:05:51.637Z,5.77
2022-10-02T08:08:25.147Z,5.97
2022-10-02T08:11:00.106Z,5.43
2022-10-02T08:13:33.006Z,6.27
2022-10-02T08:16:05.098Z,6.00
2022-10-02T08:18:38.825Z,5.80
2022-10-02T08:21:13.157Z,6.10
2022-10-02T08:23:47.086Z,5.87
2022-10-02T08:26:20.462Z,5.90
2022-10-02T08:28:52.787Z,4.83
2022-10-02T08:31:20.673Z,4.90
2022-10-02T08:33:50.178Z,4.50
2022-10-02T08:36:56.696Z,5.70
2022-10-02T08:39:56.226Z,4.30
2022-10-02T08:42:48.795Z,5.17
2022-10-02T08:45:37.551Z,5.13
2022-10-02T08:48:43.806Z,5.07
2022-10-02T08:51:39.283Z,6.20
2022-10-02T08:54:42.713Z,6.67
2022-10-02T08:57:42.667Z,5.10
2022-10-02T09:00:21.682Z,4.53
2022-10-02T09:03:24.846Z,5.27
2022-10-02T09:06:33.977Z,4.80
2022-10-02T09:09:43.276Z,4.40
2022-10-02T09:12:49.695Z,4.30
2022-10-02T09:15:19.315Z,4.27
2022-10-02T09:18:06.640Z,4.63
2022-10-02T09:20:43.787Z,3.83
2022-10-02T09:23:44.807Z,3.90
2022-10-02T09:26:20.987Z,3.57
2022-10-02T09:29:10.111Z,4.17
2022-10-02T09:32:05.181Z,4.03
2022-10-02T09:35:09.585Z,3.90
2022-10-02T09:38:14.136Z,3.40
2022-10-02T09:41:28.004Z,3.80
2022-10-02T09:44:18.606Z,3.87
2022-10-02T09:47:25.700Z,3.93
2022-10-02T09:50:27.363Z,3.10
2022-10-02T09:53:26.714Z,3.57
2022-10-02T09:56:10.553Z,3.90
2022-10-02T09:59:23.391Z,3.40
2022-10-02T10:02:24.835Z,6.17
2022-10-02T10:05:13.162Z,3.73
2022-10-02T10:08:22.378Z,3.53
2022-10-02T10:11:11.178Z,3.10
2022-10-02T10:14:07.167Z,3.63
2022-10-02T10:17:09.015Z,3.80
2022-10-02T10:20:05.489Z,3.07
2022-10-02T10:23:06.626Z,2.83
2022-10-02T10:25:51.370Z,3.50
2022-10-02T10:28:53.366Z,3.53
2022-10-02T10:32:03.269Z,6.30
2022-10-02T10:35:16.374Z,5.57
2022-10-02T10:38:13.367Z,4.70
2022-10-02T10:41:00.817Z,2.87
2022-10-02T10:43:55.888Z,2.57
2022-10-02T10:46:48.428Z,3.10
2022-10-02T10:49:33.195Z,3.90
2022-10-02T10:52:14.282Z,2.83
2022-10-02T10:55:01.870Z,4.37
2022-10-02T10:57:45.930Z,4.93
2022-10-02T11:00:20.887Z,2.17
2022-10-02T11:03:10.425Z,2.33
2022-10-02T11:06:26.948Z,2.47
2022-10-02T11:09:32.656Z,2.13
2022-10-02T11:12:32.920Z,2.70
2022-10-02T11:15:19.318Z,2.23
2022-10-02T11:18:01.298Z,2.53
2022-10-02T11:20:48.589Z,2.67
2022-10-02T11:23:43.408Z,2.73
2022-10-02T11:26:27.549Z,2.27
2022-10-02T11:29:20.971Z,3.97
2022-10-02T11:32:14.298Z,2.20
2022-10-02T11:34:56.285Z,2.27
2022-10-02T11:37:40.169Z,3.20
2022-10-02T11:40:21.185Z,5.17
2022-10-02T11:43:11.413Z,6.10
2022-10-02T11:45:55.961Z,5.13
2022-10-02T11:48:56.796Z,5.03
2022-10-02T11:51:46.453Z,5.60
2022-10-02T11:54:29.515Z,9.57
2022-10-02T11:57:35.703Z,4.60
2022-10-02T12:00:16.349Z,2.20
2022-10-02T12:02:56.761Z,1.80
2022-10-02T12:05:46.746Z,2.20
2022-10-02T12:08:24.284Z,2.80
2022-10-02T12:10:58.309Z,1.63
2022-10-02T12:13:52.855Z,1.90
2022-10-02T12:16:29.038Z,2.00
2022-10-02T12:19:18.959Z,2.20
2022-10-02T12:22:13.782Z,1.70
2022-10-02T12:25:06.162Z,3.83
2022-10-02T12:27:48.242Z,6.07
2022-10-02T12:30:20.222Z,5.10
2022-10-02T12:32:59.668Z,3.30
2022-10-02T12:35:41.470Z,1.97
2022-10-02T12:38:34.109Z,2.07
2022-10-02T12:41:11.410Z,1.50
2022-10-02T12:44:17.451Z,1.90
2022-10-02T12:47:01.026Z,2.03
2022-10-02T12:49:45.649Z,2.33
2022-10-02T12:52:47.122Z,2.13
2022-10-02T12:58:22.882Z,6.63
2022-10-02T13:01:13.169Z,3.90
2022-10-02T13:04:17.109Z,2.03
2022-10-02T13:07:21.831Z,1.53
2022-10-02T13:10:04.658Z,2.00
2022-10-02T13:12:51.011Z,2.23
2022-10-02T13:15:37.377Z,1.70
2022-10-02T13:18:18.495Z,1.57
2022-10-02T13:20:54.266Z,1.70
2022-10-02T13:23:32.001Z,1.50
2022-10-02T13:26:13.734Z,1.30
2022-10-02T13:29:09.877Z,2.27
2022-10-02T13:31:58.805Z,1.80
2022-10-02T13:34:41.857Z,1.83
2022-10-02T13:37:23.323Z,1.93
2022-10-02T13:40:12.830Z,1.80
2022-10-02T13:42:52.024Z,1.50
2022-10-02T13:45:28.606Z,2.00
2022-10-02T13:48:06.620Z,2.20
2022-10-02T13:50:45.331Z,1.50
2022-10-02T13:53:32.072Z,1.57
2022-10-02T13:56:09.133Z,3.10
2022-10-02T13:58:54.228Z,1.70
2022-10-02T14:01:33.511Z,1.57
2022-10-02T14:04:20.852Z,1.70
2022-10-02T14:06:55.677Z,6.47
2022-10-02T14:09:34.700Z,2.00
2022-10-02T14:12:19.774Z,1.60
2022-10-02T14:15:07.490Z,1.80
2022-10-02T14:17:46.803Z,2.60
2022-10-02T14:20:28.552Z,2.23
2022-10-02T14:23:13.328Z,4.77
2022-10-02T14:25:54.229Z,3.50
2022-10-02T14:28:50.739Z,1.90
2022-10-02T14:31:33.591Z,1.77
2022-10-02T14:34:35.593Z,2.07
2022-10-02T14:37:33.858Z,1.87
2022-10-02T14:40:12.078Z,5.80
2022-10-02T14:42:59.922Z,5.30
2022-10-02T14:45:46.449Z,5.20
2022-10-02T14:48:29.867Z,5.33
2022-10-02T14:51:19.839Z,3.00
2022-10-02T14:54:05.247Z,2.37
2022-10-02T14:56:51.225Z,1.60
2022-10-02T14:59:39.739Z,2.00
2022-10-02T15:02:28.481Z,2.30
2022-10-02T15:05:07.470Z,1.80
2022-10-02T15:07:38.998Z,2.20
2022-10-02T15:10:17.371Z,1.77
2022-10-02T15:12:51.220Z,1.93
2022-10-02T15:15:27.189Z,1.60
2022-10-02T15:18:20.098Z,2.03
2022-10-02T15:20:59.681Z,1.57
2022-10-02T15:23:43.453Z,1.50
2022-10-02T15:26:33.808Z,1.57
2022-10-02T15:29:14.907Z,1.80
2022-10-02T15:32:04.915Z,1.77
2022-10-02T15:34:37.947Z,1.57
2022-10-02T15:37:18.643Z,1.67
2022-10-02T15:40:05.104Z,1.60
2022-10-02T15:42:50.138Z,1.43
2022-10-02T15:45:41.378Z,1.60
2022-10-02T15:48:26.723Z,1.97
2022-10-02T15:51:01.671Z,2.10
2022-10-02T15:53:42.245Z,1.80
2022-10-02T15:56:48.820Z,2.00
2022-10-02T15:59:37.524Z,1.80
2022-10-02T16:02:25.167Z,1.80
2022-10-02T16:05:10.236Z,2.10
2022-10-02T16:07:59.815Z,1.60
2022-10-02T16:10:37.442Z,2.10
2022-10-02T16:13:34.345Z,2.27
2022-10-02T16:16:18.228Z,1.93
2022-10-02T16:19:00.987Z,2.30
2022-10-02T16:21:44.754Z,1.90
2022-10-02T16:24:26.550Z,2.07
2022-10-02T16:27:21.531Z,2.13
2022-10-02T16:30:05.338Z,2.20
2022-10-02T16:32:45.021Z,1.90
2022-10-02T16:35:24.291Z,2.00
2022-10-02T16:38:00.772Z,1.70
2022-10-02T16:40:34.314Z,1.70
2022-10-02T16:43:36.066Z,1.87
2022-10-02T16:46:10.330Z,2.50
2022-10-02T16:48:44.523Z,3.00
2022-10-02T16:51:27.277Z,3.60
2022-10-02T16:54:02.029Z,2.40
2022-10-02T16:56:33.897Z,7.07
2022-10-02T16:59:06.909Z,4.43
2022-10-02T17:01:46.193Z,2.77
2022-10-02T17:04:41.264Z,2.83
2022-10-02T17:07:26.435Z,2.30
2022-10-02T17:10:01.980Z,1.77
2022-10-02T17:12:36.201Z,2.50
2022-10-02T17:15:15.501Z,1.97
2022-10-02T17:17:56.321Z,2.40
2022-10-02T17:20:28.915Z,1.77
2022-10-02T17:23:00.794Z,2.00
2022-10-02T17:25:35.414Z,2.40
2022-10-02T17:28:11.088Z,2.90
2022-10-02T17:31:09.256Z,3.10
2022-10-02T17:33:46.503Z,3.47
2022-10-02T17:36:20.401Z,3.70
2022-10-02T17:39:14.673Z,2.83
2022-10-02T17:41:57.277Z,2.83
2022-10-02T17:44:36.197Z,2.83
2022-10-02T17:47:36.819Z,2.97
2022-10-02T17:50:21.344Z,2.93
2022-10-02T17:53:15.743Z,2.23
2022-10-02T17:56:26.470Z,3.23
2022-10-02T17:59:07.419Z,3.27
2022-10-02T18:01:44.374Z,2.20
2022-10-02T18:04:19.934Z,2.40
2022-10-02T18:07:00.224Z,1.90
2022-10-02T18:09:52.160Z,2.30
2022-10-02T18:12:34.641Z,2.37
2022-10-02T18:15:16.534Z,3.10
2022-10-02T18:17:55.404Z,4.13
2022-10-02T18:20:34.313Z,2.90
2022-10-02T18:23:21.694Z,2.90
2022-10-02T18:26:18.771Z,2.57
2022-10-02T18:29:17.568Z,2.37
2022-10-02T18:32:08.889Z,2.43
2022-10-02T18:35:11.341Z,2.30
2022-10-02T18:37:55.562Z,2.00
2022-10-02T18:40:28.832Z,2.70
2022-10-02T18:43:22.767Z,2.50
2022-10-02T18:46:00.702Z,1.90
2022-10-02T18:49:09.649Z,2.40
2022-10-02T18:52:06.617Z,2.33
2022-10-02T18:54:46.762Z,2.50
2022-10-02T18:57:34.534Z,3.40
2022-10-02T19:00:17.077Z,2.20
2022-10-02T19:03:01.919Z,2.77
2022-10-02T19:05:35.530Z,2.30
2022-10-02T19:08:22.032Z,2.17
2022-10-02T19:10:50.183Z,3.00
2022-10-02T19:13:27.424Z,2.50
2022-10-02T19:16:01.297Z,2.07
2022-10-02T19:18:31.430Z,2.80
2022-10-02T19:21:06.631Z,2.53
2022-10-02T19:23:40.455Z,2.30
2022-10-02T19:26:18.852Z,2.90
2022-10-02T19:28:50.171Z,2.60
2022-10-02T19:31:24.970Z,2.77
2022-10-02T19:33:58.019Z,2.90
2022-10-02T19:36:30.854Z,2.80
2022-10-02T19:39:02.768Z,2.70
2022-10-02T19:41:35.970Z,2.70
2022-10-02T19:44:07.379Z,2.53
2022-10-02T19:46:41.048Z,2.93
2022-10-02T19:49:17.936Z,2.40
2022-10-02T19:51:47.936Z,3.30
2022-10-02T19:54:21.563Z,2.70
2022-10-02T19:56:54.483Z,2.60
2022-10-02T19:59:26.809Z,1.90
2022-10-02T20:02:00.030Z,2.67
2022-10-02T20:04:31.963Z,2.40
2022-10-02T20:07:02.063Z,3.33
2022-10-02T20:09:37.485Z,2.30
2022-10-02T20:12:10.347Z,2.77
2022-10-02T20:14:43.954Z,2.87
2022-10-02T20:17:17.804Z,2.93
2022-10-02T20:19:50.858Z,2.67
2022-10-02T20:22:30.079Z,2.67
2022-10-02T20:25:03.902Z,2.40
2022-10-02T20:27:42.915Z,2.60
2022-10-02T20:30:15.573Z,2.80
2022-10-02T20:32:50.737Z,2.87
2022-10-02T20:35:23.113Z,3.50
2022-10-02T20:37:54.189Z,2.70
2022-10-02T20:40:27.265Z,2.90
2022-10-02T20:43:01.202Z,3.53
2022-10-02T20:45:37.886Z,2.77
2022-10-02T20:49:07.410Z,2.87
2022-10-02T20:52:09.479Z,2.60
2022-10-02T20:54:45.634Z,2.77
2022-10-02T20:58:00.205Z,2.43
2022-10-02T21:00:38.456Z,2.57
2022-10-02T21:03:29.014Z,2.60
2022-10-02T21:06:40.258Z,2.40
2022-10-02T21:09:39.550Z,2.10
2022-10-02T21:12:46.268Z,2.60
2022-10-02T21:15:57.040Z,2.27
2022-10-02T21:18:48.178Z,2.10
2022-10-02T21:21:33.369Z,2.67
2022-10-02T21:24:45.761Z,2.53
2022-10-02T21:27:36.261Z,2.60
2022-10-02T21:30:13.533Z,2.53
2022-10-02T21:32:49.951Z,3.03
2022-10-02T21:35:37.710Z,3.63
2022-10-02T21:38:47.609Z,3.00
2022-10-02T21:41:55.221Z,2.93
2022-10-02T21:45:00.289Z,3.20
2022-10-02T21:48:22.108Z,3.17
2022-10-02T21:51:35.343Z,2.47
2022-10-02T21:54:37.457Z,2.40
2022-10-02T21:57:29.680Z,2.47
2022-10-02T22:00:13.635Z,2.47
2022-10-02T22:03:17.737Z,2.63
2022-10-02T22:06:14.983Z,2.90
2022-10-02T22:09:04.369Z,3.00
2022-10-02T22:11:41.090Z,2.90
2022-10-02T22:14:13.441Z,3.03
2022-10-02T22:16:55.201Z,3.13
2022-10-02T22:19:39.518Z,2.70
2022-10-02T22:22:22.195Z,2.50
2022-10-02T22:25:03.801Z,2.70
2022-10-02T22:27:51.424Z,2.63
2022-10-02T22:30:25.137Z,2.63
2022-10-02T22:33:11.931Z,2.83
2022-10-02T22:36:02.895Z,2.50
2022-10-02T22:38:35.462Z,2.37
2022-10-02T22:41:10.431Z,2.60
2022-10-02T22:43:48.424Z,2.93
2022-10-02T22:46:28.154Z,2.53
2022-10-02T22:49:02.176Z,2.77
2022-10-02T22:51:38.299Z,3.50
2022-10-02T22:54:21.444Z,3.10
2022-10-02T22:56:58.227Z,2.80
2022-10-02T22:59:32.929Z,2.20
2022-10-02T23:02:08.184Z,2.77
2022-10-02T23:04:40.376Z,2.87
2022-10-02T23:07:16.463Z,2.70
2022-10-02T23:09:52.580Z,2.40
2022-10-02T23:12:29.138Z,3.17
2022-10-02T23:15:05.356Z,2.23
2022-10-02T23:17:38.767Z,2.97
2022-10-02T23:20:13.993Z,2.83
2022-10-02T23:22:52.075Z,3.03
2022-10-02T23:25:26.160Z,3.40
2022-10-02T23:28:01.522Z,2.90
2022-10-02T23:30:32.519Z,2.83
2022-10-02T23:33:06.235Z,3.23
2022-10-02T23:35:40.034Z,2.67
2022-10-02T23:38:18.074Z,2.43
2022-10-02T23:41:21.957Z,2.33
2022-10-02T23:44:00.425Z,2.97
2022-10-02T23:46:36.006Z,2.50
2022-10-02T23:49:04.316Z,2.73
2022-10-02T23:51:42.363Z,2.90
2022-10-02T23:54:40.455Z,2.50
2022-10-02T23:57:29.574Z,2.57
